Record high temperature 107.1°F Record low temperature 10.6°F Record high gust 49.5 mph Record high average 23.3 mph Record daily rain 11.65 in. Record low windchill 2.7°F Record high barometer 30.818 in. Record low barometer 29.117 in.
Daily high pressure 30.140 in. Daily low pressure 30.054 in. Daily low windchill 58.6°F Daily high heat index 86.6°F Daily high gust speed 6.0 mph S Daily high average speed 3.4 mph WSW
On the Greenway Weather data
LAST READING AT TIME: 1:10 PM DATE: June 27 2016, time of next update: 1:11 pm
Current WeatherOvercast/Dry Current Temperature 86.0°F (30.0°C) (Heat Index 86.2°F ), Apparent temp 89.9°F , Apparent temp solar 89.9 °F
Maximum Temperature (since midnight)86.0°F at: 1:08 PM Minimum Temperature (since midnight)58.6°F at: 6:03 AM
Average windspeed (ten minute)0.5 mph Wind Direction (ten minute)S (174°)
Heat Index 86.2°F Maximum Gust (last hour)6.0 mph at: 12:57PM
Maximum Gust (since midnight)6.0 mph at: 10:22 AM Maximum 1 minute average (since midnight)3.4 mph at: 12:57 PM
Rainfall (last hour)0.00 in. (0.0 mm) Rainfall (since midnight)0.00 in. (0.0 mm) ---
Rainfall This month 1.26 in. (32.0 mm) Rainfall To date this year 51.24 in. (1301.5 mm)
Maximum rain per minute (last hour)0.00 in/min Maximum rain per hour (last 6 hours)0.00 in/hour
Yesterdays rainfall 0.00 in DewPoint 60.9°F (Wet Bulb :70.2°F )
Humidity 43 %, Humidex 94.4°F Barometer corrected to msl30.109 in. (1019.6 hPa)
Pressure change -0.01 in. (last hour) Trend (last hour)STEADY
Pressure change (last 12 hours)+0.05 in Pressure change (last 6 hours)-0.02 in
Current Indoor Temp. 83.3°F
Current Indoor Hum. 31%
Current Solar 0 W/Mē
Maximum solar (since midnight) 1019 W/Mē Minimum solar (since midnight)0 W/Mē
Current 00:00 hours of sunshine today, current sky: Overcast
Sunshine hours for the year: 00:00 hrs Sunshine hours for the month: 00:00 hrs
Current evapotranspiration 0.08 inches per day. Yesterday's reading 0.11

This page is updated from recent data collected by a DAVIS VANTAGE PRO weather station Use the Reload or Refresh facility on your browser to retrieve the latest data.


Click here for the last 24 hour graph
Click here for the last 48 hour graph
Click here for the last 72 hour graph
Click here for the month to date graph


Weather report/warning/Metars

Expires:201606272215;;070383
FPUS56 KPQR 271614
ZFPPQR

ZONE FORECASTS FOR NORTHWEST OREGON AND SOUTHWEST WASHINGTON
NATIONAL WEATHER SERVICE PORTLAND OREGON
914 AM PDT MON JUN 27 2016

SPOT TEMPERATURES ARE FOR TODAY...TONIGHT...TUESDAY...TUESDAY
NIGHT...AND WEDNESDAY.


ORZ006-WAZ039-272215-
GREATER PORTLAND METRO AREA-GREATER VANCOUVER AREA-
INCLUDING THE CITIES OF...HILLSBORO...PORTLAND...WILSONVILLE...
OREGON CITY...GRESHAM...TROUTDALE...VANCOUVER...BATTLE GROUND...
RIDGEFIELD...WASHOUGAL...YACOLT...AMBOY
914 AM PDT MON JUN 27 2016

.TODAY...SUNNY. HIGHS AROUND 85. NORTHWEST WIND 5 TO 10 MPH. 
.TONIGHT...CLEAR IN THE EVENING...THEN PARTLY CLOUDY. LOWS AROUND
55. NORTHWEST WIND 5 TO 10 MPH. GUSTS TO 20 MPH IN THE EVENING. 
.TUESDAY...CLOUDY IN THE MORNING...THEN MOSTLY SUNNY. HIGHS 80 TO
85. NORTHWEST WIND 5 TO 10 MPH. 
.TUESDAY NIGHT...MOSTLY CLEAR. LOWS AROUND 55. NORTHWEST WIND 5 TO
15 MPH. 
.WEDNESDAY...MOSTLY SUNNY. HIGHS 80 TO 85. NORTHWEST WIND 5 TO
10 MPH. 
.WEDNESDAY NIGHT...MOSTLY CLEAR. LOWS AROUND 55. 
.THURSDAY...SUNNY. HIGHS AROUND 80. 
.THURSDAY NIGHT...MOSTLY CLEAR. LOWS AROUND 55. 
.FRIDAY...MOSTLY SUNNY. HIGHS 75 TO 80. 
.FRIDAY NIGHT...MOSTLY CLEAR IN THE EVENING...THEN MOSTLY CLOUDY.
LOWS AROUND 55. 
.SATURDAY...PARTLY SUNNY. HIGHS 70 TO 75. 
.SATURDAY NIGHT...PARTLY CLOUDY IN THE EVENING...THEN MOSTLY CLOUDY.
LOWS AROUND 55. 
.SUNDAY...PARTLY SUNNY. HIGHS AROUND 75. 

&&
                  TEMPERATURE         
PORTLAND          86  59  82  57  85
HILLSBORO         87  54  84  54  86

$$
=


PORTLAND-HILLSBORO AIRPORT, OR, United States (KHIO) 45-33N 122-57W 68M
Jun 27, 2016 - 03:53 PM EDT / 2016.06.27 1953 UTC
Wind: from the WNW (300 degrees) at 6 MPH (5 KT):0
Visibility: 10 mile(s):0
Sky conditions: clear
Temperature: 82.0 F (27.8 C)
Dew Point: 55.9 F (13.3 C)
Relative Humidity: 40%
Pressure (altimeter): 30.13 in. Hg (1020 hPa)
ob: KHIO 271953Z 30005KT 10SM CLR 28/13 A3013 RMK AO2 SLP199 T02780133
cycle: 20
PORTLAND INTERNATIONAL  AIRPORT, OR, United States (KPDX) 45-35N 122-36W 7M
Jun 27, 2016 - 03:53 PM EDT / 2016.06.27 1953 UTC
Wind: from the WNW (300 degrees) at 10 MPH (9 KT):0
Visibility: 10 mile(s):0
Sky conditions: mostly clear
Temperature: 80.1 F (26.7 C)
Dew Point: 57.0 F (13.9 C)
Relative Humidity: 45%
Pressure (altimeter): 30.13 in. Hg (1020 hPa)
ob: KPDX 271953Z 30009KT 10SM FEW080 27/14 A3013 RMK AO2 SLP202 T02670139
cycle: 20
PORTLAND-TROUTDALE AIRPORT, OR, United States (KTTD) 45-33N 122-25W 14M
Jun 27, 2016 - 03:53 PM EDT / 2016.06.27 1953 UTC
Wind: Variable at 5 MPH (4 KT):0
Visibility: 10 mile(s):0
Sky conditions: clear
Temperature: 79.0 F (26.1 C)
Dew Point: 57.9 F (14.4 C)
Relative Humidity: 48%
Pressure (altimeter): 30.12 in. Hg (1019 hPa)
ob: KTTD 271953Z VRB04KT 10SM CLR 26/14 A3012 RMK AO2 SLP200 T02610144
cycle: 20
MCMINNVILLE MUNICIPAL AIRPORT , OR, United States (KMMV) 45-12N 123-08W 48M
Jun 27, 2016 - 03:53 PM EDT / 2016.06.27 1953 UTC
Wind: Calm:0
Visibility: 10 mile(s):0
Sky conditions: clear
Temperature: 80.1 F (26.7 C)
Dew Point: 55.0 F (12.8 C)
Relative Humidity: 42%
Pressure (altimeter): 30.14 in. Hg (1020 hPa)
ob: KMMV 271953Z AUTO 00000KT 10SM CLR 27/13 A3014 RMK AO2 SLP206 T02670128
cycle: 20
SALEM MCNARY FIELD, OR, United States (KSLE) 44-54N 123-00W 59M
Jun 27, 2016 - 03:56 PM EDT / 2016.06.27 1956 UTC
Wind: Calm:0
Visibility: 10 mile(s):0
Sky conditions: clear
Temperature: 81.0 F (27.2 C)
Dew Point: 55.0 F (12.8 C)
Relative Humidity: 40%
Pressure (altimeter): 30.13 in. Hg (1020 hPa)
ob: KSLE 271956Z 00000KT 10SM CLR 27/13 A3013 RMK AO2 SLP200 T02720128
cycle: 20

Date: 6/27/2016
Sunrise at:
05:24 am

Sunset at:
09:03 pm

Moonrise at:
12:57 am 06/27/16

Moonset at:
01:15 pm 06/27/16

First Quarter  June 12 2016
Full moon  June 20 2016
Last QuarterJune 27 2016
New moon July 4 2016
Moon age: 21 days,15 hours,34 minutes,55%
Hours of possible daylight today was 15:39:00



Use the RELOAD facility on your browser to retrieve the latest data.

Click here for current Fire weather info
Click here for the daily CLIMATOLOGICAL SUMMARY
Click here for a daily update of the averages/extremes to date for the month




Created by "Weather Display" software version 10.37R at this start time/date 10:54:19 AM 5/18/2016




On The Greenway Weather Web Site

 
 
HELP US OUT
Help us keep this weather station on the web. for the Tigard / Portland internet users to use. If you would like to help, click the donate button below
 
This site is purely funded by donations and by myself (Ray Cooper)
Anything you can do will help keep this station on the net
Average cost per year is $665 to publish and host this site excluding the cost of the weather equipment
Buyastrostuff.com is kind enough to host our DNS and email at no cost.
THANKS GUYS & Gals for helping
Have a Question,or just want to talk. Contact me at:
Ray Cooper @ Buyastrostuff.com
 

Weather Underground PWS KORTIGAR12 Weather Underground PWS KORTIGAR12